createdAt,value
2023-02-02T00:01:29.503Z,9.90
2023-02-02T00:03:57.165Z,9.90
2023-02-02T00:06:25.937Z,9.90
2023-02-02T00:08:53.670Z,9.90
2023-02-02T00:11:20.596Z,9.90
2023-02-02T00:13:47.432Z,9.90
2023-02-02T00:16:29.412Z,9.90
2023-02-02T00:18:58.880Z,9.90
2023-02-02T00:21:26.229Z,9.90
2023-02-02T00:23:53.355Z,9.80
2023-02-02T00:26:21.503Z,9.90
2023-02-02T00:28:48.821Z,9.80
2023-02-02T00:31:15.909Z,9.80
2023-02-02T00:33:50.358Z,9.80
2023-02-02T00:36:17.783Z,9.70
2023-02-02T00:38:44.584Z,9.70
2023-02-02T00:41:11.467Z,9.70
2023-02-02T00:43:38.487Z,9.70
2023-02-02T00:46:06.483Z,9.90
2023-02-02T00:48:33.496Z,9.80
2023-02-02T00:51:00.339Z,9.80
2023-02-02T00:53:27.126Z,9.80
2023-02-02T00:55:53.888Z,9.70
2023-02-02T00:58:20.681Z,9.80
2023-02-02T01:00:47.481Z,9.80
2023-02-02T01:03:14.546Z,9.90
2023-02-02T01:05:41.479Z,9.80
2023-02-02T01:08:08.991Z,9.90
2023-02-02T01:10:36.298Z,9.70
2023-02-02T01:13:03.497Z,9.80
2023-02-02T01:15:30.827Z,9.80
2023-02-02T01:17:58.117Z,9.70
2023-02-02T01:20:25.894Z,9.80
2023-02-02T01:22:53.022Z,9.90
2023-02-02T01:25:20.091Z,9.90
2023-02-02T01:27:46.934Z,9.90
2023-02-02T01:30:14.026Z,9.80
2023-02-02T01:32:40.820Z,9.80
2023-02-02T01:35:07.926Z,9.80
2023-02-02T01:37:34.716Z,9.70
2023-02-02T01:40:01.697Z,9.80
2023-02-02T01:42:28.542Z,9.80
2023-02-02T01:45:11.636Z,9.90
2023-02-02T01:47:46.058Z,9.80
2023-02-02T01:50:15.058Z,9.90
2023-02-02T01:52:45.934Z,9.80
2023-02-02T01:55:15.898Z,9.90
2023-02-02T01:57:49.838Z,9.90
2023-02-02T02:00:18.854Z,9.90
2023-02-02T02:02:48.873Z,9.90
2023-02-02T02:05:21.725Z,10.00
2023-02-02T02:07:50.329Z,9.80
2023-02-02T02:10:18.395Z,9.90
2023-02-02T02:12:47.515Z,9.80
2023-02-02T02:15:34.640Z,9.90
2023-02-02T02:18:40.848Z,9.90
2023-02-02T02:21:43.634Z,10.00
2023-02-02T02:24:47.018Z,10.10
2023-02-02T02:27:42.691Z,10.00
2023-02-02T02:30:30.744Z,9.90
2023-02-02T02:33:31.100Z,9.90
2023-02-02T02:36:06.630Z,10.00
2023-02-02T02:38:56.632Z,9.80
2023-02-02T02:41:30.592Z,9.80
2023-02-02T02:44:04.948Z,9.80
2023-02-02T02:46:32.566Z,9.80
2023-02-02T02:49:01.083Z,9.80
2023-02-02T02:51:50.832Z,9.90
2023-02-02T02:54:20.035Z,10.00
2023-02-02T02:56:52.601Z,10.00
2023-02-02T02:59:58.238Z,9.90
2023-02-02T03:02:58.384Z,9.80
2023-02-02T03:05:33.393Z,9.70
2023-02-02T03:08:30.697Z,9.80
2023-02-02T03:10:59.428Z,9.70
2023-02-02T03:13:27.505Z,9.80
2023-02-02T03:15:54.540Z,9.60
2023-02-02T03:18:25.263Z,9.60
2023-02-02T03:20:52.109Z,9.50
2023-02-02T03:23:19.045Z,9.50
2023-02-02T03:25:46.989Z,9.60
2023-02-02T03:28:15.068Z,9.60
2023-02-02T03:30:43.352Z,9.60
2023-02-02T03:33:11.850Z,9.60
2023-02-02T03:35:38.835Z,9.80
2023-02-02T03:38:05.880Z,9.80
2023-02-02T03:40:33.254Z,9.60
2023-02-02T03:43:00.122Z,9.70
2023-02-02T03:45:30.245Z,9.80
2023-02-02T03:47:57.018Z,9.80
2023-02-02T03:50:25.299Z,9.80
2023-02-02T03:52:52.255Z,9.80
2023-02-02T03:55:19.220Z,9.70
2023-02-02T03:57:46.164Z,9.70
2023-02-02T04:00:13.626Z,9.70
2023-02-02T04:02:40.637Z,9.70
2023-02-02T04:05:08.002Z,9.70
2023-02-02T04:07:35.413Z,9.70
2023-02-02T04:10:02.526Z,9.70
2023-02-02T04:12:29.358Z,9.70
2023-02-02T04:14:56.178Z,9.70
2023-02-02T04:17:23.092Z,9.60
2023-02-02T04:19:50.004Z,9.50
2023-02-02T04:22:16.795Z,9.60
2023-02-02T04:24:43.607Z,9.60
2023-02-02T04:27:10.533Z,9.60
2023-02-02T04:29:37.352Z,9.70
2023-02-02T04:32:04.382Z,9.70
2023-02-02T04:34:31.925Z,9.60
2023-02-02T04:36:58.804Z,9.60
2023-02-02T04:39:25.632Z,9.50
2023-02-02T04:41:52.507Z,9.50
2023-02-02T04:44:19.529Z,9.50
2023-02-02T04:46:46.595Z,9.60
2023-02-02T04:49:13.666Z,9.60
2023-02-02T04:51:41.416Z,9.50
2023-02-02T04:54:08.386Z,9.70
2023-02-02T04:56:35.529Z,9.60
2023-02-02T04:59:02.471Z,9.60
2023-02-02T05:01:30.909Z,9.70
2023-02-02T05:03:58.420Z,9.60
2023-02-02T05:06:25.476Z,9.60
2023-02-02T05:08:52.460Z,9.60
2023-02-02T05:11:22.036Z,9.60
2023-02-02T05:13:51.388Z,9.40
2023-02-02T05:16:18.958Z,9.40
2023-02-02T05:18:53.574Z,9.40
2023-02-02T05:21:21.760Z,9.50
2023-02-02T05:23:49.185Z,9.50
2023-02-02T05:26:24.930Z,9.50
2023-02-02T05:28:52.259Z,9.60
2023-02-02T05:31:20.055Z,9.50
2023-02-02T05:33:46.992Z,9.50
2023-02-02T05:36:14.399Z,9.50
2023-02-02T05:38:41.382Z,9.60
2023-02-02T05:41:08.735Z,9.50
2023-02-02T05:43:35.843Z,9.60
2023-02-02T05:46:02.989Z,9.70
2023-02-02T05:48:29.926Z,9.60
2023-02-02T05:51:17.516Z,9.60
2023-02-02T05:53:45.303Z,9.50
2023-02-02T05:56:13.355Z,9.50
2023-02-02T05:58:40.363Z,9.50
2023-02-02T06:01:10.198Z,9.50
2023-02-02T06:03:37.674Z,9.60
2023-02-02T06:06:06.923Z,9.60
2023-02-02T06:08:34.721Z,9.50
2023-02-02T06:11:13.000Z,9.60
2023-02-02T06:13:40.067Z,9.80
2023-02-02T06:16:07.628Z,9.70
2023-02-02T06:18:35.970Z,9.50
2023-02-02T06:21:05.827Z,9.60
2023-02-02T06:23:33.981Z,9.70
2023-02-02T06:26:01.920Z,9.70
2023-02-02T06:28:31.072Z,9.70
2023-02-02T06:31:04.889Z,9.60
2023-02-02T06:33:32.145Z,9.50
2023-02-02T06:36:04.303Z,9.60
2023-02-02T06:38:31.351Z,9.60
2023-02-02T06:41:02.140Z,9.60
2023-02-02T06:43:30.097Z,9.70
2023-02-02T06:46:00.658Z,9.60
2023-02-02T06:48:27.936Z,9.60
2023-02-02T06:50:57.549Z,9.60
2023-02-02T06:53:24.850Z,9.50
2023-02-02T06:56:04.111Z,9.60
2023-02-02T06:58:32.114Z,9.70
2023-02-02T07:01:17.237Z,9.60
2023-02-02T07:03:47.846Z,9.60
2023-02-02T07:06:26.666Z,9.70
2023-02-02T07:09:00.938Z,9.60
2023-02-02T07:11:41.975Z,9.70
2023-02-02T07:14:10.118Z,9.70
2023-02-02T07:16:36.974Z,9.60
2023-02-02T07:19:03.929Z,9.50
2023-02-02T07:21:35.998Z,9.70
2023-02-02T07:24:04.192Z,9.70
2023-02-02T07:26:31.247Z,9.60
2023-02-02T07:28:58.303Z,9.50
2023-02-02T07:31:27.263Z,9.60
2023-02-02T07:33:54.999Z,9.70
2023-02-02T07:36:23.924Z,9.80
2023-02-02T07:38:57.667Z,9.80
2023-02-02T07:41:25.357Z,9.80
2023-02-02T07:43:52.486Z,9.80
2023-02-02T07:46:21.042Z,9.80
2023-02-02T07:48:48.525Z,9.80
2023-02-02T07:51:17.546Z,9.80
2023-02-02T07:53:49.876Z,9.80
2023-02-02T07:56:30.345Z,9.70
2023-02-02T07:58:58.462Z,9.70
2023-02-02T08:01:27.069Z,9.80
2023-02-02T08:03:55.633Z,9.80
2023-02-02T08:06:34.056Z,9.80
2023-02-02T08:09:02.244Z,9.90
2023-02-02T08:11:30.031Z,9.90
2023-02-02T08:13:59.377Z,9.70
2023-02-02T08:16:27.531Z,9.70
2023-02-02T08:18:55.098Z,9.70
2023-02-02T08:21:22.470Z,9.90
2023-02-02T08:23:50.080Z,9.90
2023-02-02T08:26:23.272Z,9.90
2023-02-02T08:28:54.354Z,10.00
2023-02-02T08:31:28.494Z,10.00
2023-02-02T08:33:58.416Z,9.80
2023-02-02T08:36:27.466Z,10.00
2023-02-02T08:38:54.790Z,9.90
2023-02-02T08:41:24.144Z,9.80
2023-02-02T08:43:51.380Z,9.80
2023-02-02T08:46:21.009Z,10.00
2023-02-02T08:48:48.483Z,9.90
2023-02-02T08:51:19.528Z,10.00
2023-02-02T08:53:46.932Z,10.10
2023-02-02T08:56:21.817Z,10.20
2023-02-02T08:58:51.578Z,10.30
2023-02-02T09:01:24.254Z,10.20
2023-02-02T09:03:55.778Z,10.10
2023-02-02T09:06:27.995Z,10.10
2023-02-02T09:08:55.810Z,10.00
2023-02-02T09:11:23.101Z,9.90
2023-02-02T09:13:53.615Z,9.90
2023-02-02T09:16:21.757Z,9.90
2023-02-02T09:18:48.595Z,10.00
2023-02-02T09:21:17.506Z,10.00
2023-02-02T09:23:45.754Z,10.00
2023-02-02T09:26:24.080Z,10.00
2023-02-02T09:28:54.391Z,10.00
2023-02-02T09:31:21.964Z,10.10
2023-02-02T09:33:49.431Z,10.20
2023-02-02T09:36:22.144Z,10.20
2023-02-02T09:38:50.796Z,10.20
2023-02-02T09:41:20.651Z,10.10
2023-02-02T09:44:25.668Z,10.30
2023-02-02T09:47:01.589Z,10.30
2023-02-02T09:49:57.415Z,10.40
2023-02-02T09:52:37.180Z,10.60
2023-02-02T09:55:17.124Z,10.60
2023-02-02T09:57:50.940Z,10.50
2023-02-02T10:00:34.493Z,10.50
2023-02-02T10:03:07.659Z,10.50
2023-02-02T10:05:57.630Z,10.40
2023-02-02T10:08:51.131Z,10.60
2023-02-02T10:11:33.024Z,10.50
2023-02-02T10:14:12.187Z,10.50
2023-02-02T10:16:40.790Z,10.70
2023-02-02T10:19:13.874Z,10.80
2023-02-02T10:21:57.539Z,11.00
2023-02-02T10:24:29.265Z,11.10
2023-02-02T10:27:04.169Z,11.20
2023-02-02T10:29:49.640Z,11.40
2023-02-02T10:32:23.237Z,11.50
2023-02-02T10:35:20.428Z,11.50
2023-02-02T10:37:56.571Z,11.60
2023-02-02T10:40:41.443Z,11.80
2023-02-02T10:43:48.821Z,11.90
2023-02-02T10:46:43.215Z,12.00
2023-02-02T10:49:15.951Z,12.10
2023-02-02T10:51:51.692Z,12.20
2023-02-02T10:54:55.324Z,12.20
2023-02-02T10:57:59.006Z,12.20
2023-02-02T11:00:42.339Z,12.30
2023-02-02T11:03:11.529Z,12.10
2023-02-02T11:05:57.523Z,12.20
2023-02-02T11:08:41.284Z,12.50
2023-02-02T11:11:35.156Z,12.70
2023-02-02T11:14:03.934Z,12.60
2023-02-02T11:16:42.753Z,12.50
2023-02-02T11:19:20.064Z,12.60
2023-02-02T11:22:02.602Z,12.70
2023-02-02T11:24:38.876Z,12.80
2023-02-02T11:27:18.390Z,12.80
2023-02-02T11:29:59.832Z,12.90
2023-02-02T11:32:30.661Z,12.80
2023-02-02T11:35:22.364Z,12.80
2023-02-02T11:38:16.725Z,13.30
2023-02-02T11:41:09.248Z,13.50
2023-02-02T11:43:42.219Z,13.50
2023-02-02T11:46:25.290Z,13.50
2023-02-02T11:49:05.115Z,13.60
2023-02-02T11:51:32.788Z,13.40
2023-02-02T11:54:13.375Z,13.30
2023-02-02T11:56:40.432Z,13.20
2023-02-02T11:59:53.969Z,13.10
2023-02-02T12:02:31.629Z,13.00
2023-02-02T12:05:10.360Z,13.30
2023-02-02T12:07:37.722Z,13.40
2023-02-02T12:10:20.658Z,13.10
2023-02-02T12:13:00.790Z,12.80
2023-02-02T12:15:42.592Z,12.60
2023-02-02T12:18:35.752Z,12.60
2023-02-02T12:21:06.566Z,12.20
2023-02-02T12:23:54.611Z,12.00
2023-02-02T12:26:40.254Z,11.90
2023-02-02T12:29:25.141Z,12.00
2023-02-02T12:32:01.040Z,12.30
2023-02-02T12:35:02.070Z,12.70
2023-02-02T12:37:34.558Z,12.80
2023-02-02T12:40:04.355Z,12.40
2023-02-02T12:42:50.622Z,12.20
2023-02-02T12:45:39.057Z,12.30
2023-02-02T12:48:32.691Z,12.30
2023-02-02T12:51:13.633Z,12.10
2023-02-02T12:54:34.478Z,12.00
2023-02-02T12:57:29.268Z,12.10
2023-02-02T13:00:20.455Z,12.00
2023-02-02T13:03:16.143Z,12.00
2023-02-02T13:05:54.689Z,12.00
2023-02-02T13:08:58.156Z,11.90
2023-02-02T13:11:49.841Z,11.90
2023-02-02T13:14:30.787Z,12.10
2023-02-02T13:17:05.784Z,12.20
2023-02-02T13:19:40.294Z,12.20
2023-02-02T13:22:14.655Z,12.10
2023-02-02T13:24:44.601Z,12.20
2023-02-02T13:27:16.148Z,12.50
2023-02-02T13:29:52.867Z,12.60
2023-02-02T13:32:38.915Z,12.50
2023-02-02T13:35:11.654Z,12.40
2023-02-02T13:37:58.870Z,12.30
2023-02-02T13:40:36.927Z,12.40
2023-02-02T13:43:39.973Z,12.10
2023-02-02T13:46:30.354Z,12.10
2023-02-02T13:49:08.338Z,12.10
2023-02-02T13:51:58.188Z,11.80
2023-02-02T13:54:47.619Z,11.80
2023-02-02T13:57:33.015Z,11.70
2023-02-02T13:59:59.786Z,11.70
2023-02-02T14:02:41.915Z,11.60
2023-02-02T14:05:20.490Z,11.70
2023-02-02T14:07:48.986Z,11.80
2023-02-02T14:10:26.943Z,11.90
2023-02-02T14:12:55.889Z,11.80
2023-02-02T14:15:44.539Z,12.00
2023-02-02T14:18:11.498Z,11.90
2023-02-02T14:20:49.483Z,11.80
2023-02-02T14:23:54.583Z,11.80
2023-02-02T14:26:47.835Z,11.70
2023-02-02T14:29:31.524Z,11.70
2023-02-02T14:32:00.360Z,11.60
2023-02-02T14:34:35.533Z,11.70
2023-02-02T14:37:17.615Z,11.50
2023-02-02T14:40:14.695Z,11.80
2023-02-02T14:43:00.119Z,11.70
2023-02-02T14:45:43.656Z,11.70
2023-02-02T14:48:16.161Z,11.80
2023-02-02T14:50:55.522Z,11.70
2023-02-02T14:53:24.574Z,11.70
2023-02-02T14:56:29.805Z,11.70
2023-02-02T14:59:01.698Z,11.90
2023-02-02T15:01:32.282Z,11.90
2023-02-02T15:04:17.488Z,11.80
2023-02-02T15:06:44.947Z,11.80
2023-02-02T15:09:29.455Z,11.90
2023-02-02T15:12:01.657Z,11.90
2023-02-02T15:14:40.682Z,11.80
2023-02-02T15:17:28.785Z,11.80
2023-02-02T15:20:23.366Z,11.80
2023-02-02T15:23:02.470Z,11.90
2023-02-02T15:25:35.786Z,11.90
2023-02-02T15:28:22.725Z,11.70
2023-02-02T15:30:54.627Z,11.70
2023-02-02T15:33:36.780Z,11.80
2023-02-02T15:36:23.781Z,11.80
2023-02-02T15:38:55.542Z,11.60
2023-02-02T15:41:27.867Z,11.60
2023-02-02T15:43:54.959Z,11.60
2023-02-02T15:46:26.788Z,11.70
2023-02-02T15:49:32.925Z,11.60
2023-02-02T15:52:10.915Z,11.60
2023-02-02T15:54:40.526Z,11.70
2023-02-02T15:57:29.550Z,11.70
2023-02-02T15:59:57.208Z,11.70
2023-02-02T16:02:45.383Z,11.90
2023-02-02T16:05:31.023Z,11.80
2023-02-02T16:08:05.940Z,11.70
2023-02-02T16:10:35.207Z,11.60
2023-02-02T16:13:03.318Z,11.50
2023-02-02T16:15:34.166Z,11.50
2023-02-02T16:18:10.736Z,11.30
2023-02-02T16:20:39.220Z,11.40
2023-02-02T16:23:13.973Z,11.40
2023-02-02T16:25:51.789Z,11.50
2023-02-02T16:28:22.047Z,11.40
2023-02-02T16:30:51.849Z,11.30
2023-02-02T16:33:36.816Z,11.30
2023-02-02T16:36:28.505Z,11.30
2023-02-02T16:38:57.839Z,11.30
2023-02-02T16:41:35.946Z,11.40
2023-02-02T16:44:28.528Z,11.40
2023-02-02T16:46:56.435Z,11.30
2023-02-02T16:49:26.312Z,11.20
2023-02-02T16:52:15.424Z,11.20
2023-02-02T16:54:50.199Z,11.30
2023-02-02T16:57:20.508Z,11.50
2023-02-02T16:59:50.921Z,11.50
2023-02-02T17:02:30.061Z,11.60
2023-02-02T17:05:16.401Z,11.50
2023-02-02T17:07:49.926Z,11.50
2023-02-02T17:10:17.170Z,11.50
2023-02-02T17:12:45.755Z,11.40
2023-02-02T17:15:18.688Z,11.40
2023-02-02T17:17:49.601Z,11.30
2023-02-02T17:20:18.677Z,11.30
2023-02-02T17:22:58.429Z,11.20
2023-02-02T17:25:37.837Z,11.00
2023-02-02T17:28:09.854Z,11.10
2023-02-02T17:30:37.140Z,11.00
2023-02-02T17:33:04.126Z,11.10
2023-02-02T17:35:47.301Z,11.00
2023-02-02T17:38:18.327Z,11.10
2023-02-02T17:40:45.609Z,11.00
2023-02-02T17:43:12.878Z,11.00
2023-02-02T17:45:43.514Z,11.00
2023-02-02T17:48:12.576Z,10.90
2023-02-02T17:50:40.770Z,10.80
2023-02-02T17:53:12.357Z,10.90
2023-02-02T17:55:42.019Z,11.00
2023-02-02T17:58:10.707Z,11.10
2023-02-02T18:00:39.599Z,11.10
2023-02-02T18:03:14.486Z,11.10
2023-02-02T18:05:43.559Z,11.00
2023-02-02T18:08:15.353Z,11.00
2023-02-02T18:10:42.781Z,11.00
2023-02-02T18:13:19.394Z,11.00
2023-02-02T18:15:47.187Z,10.90
2023-02-02T18:18:14.215Z,10.90
2023-02-02T18:20:49.250Z,10.90
2023-02-02T18:23:17.867Z,10.90
2023-02-02T18:25:44.875Z,10.90
2023-02-02T18:28:14.681Z,10.90
2023-02-02T18:30:43.746Z,10.90
2023-02-02T18:33:16.946Z,11.00
2023-02-02T18:35:45.563Z,10.90
2023-02-02T18:38:13.160Z,10.80
2023-02-02T18:40:40.329Z,10.90
2023-02-02T18:43:07.387Z,10.90
2023-02-02T18:45:34.299Z,11.00
2023-02-02T18:48:01.185Z,11.00
2023-02-02T18:50:28.091Z,10.90
2023-02-02T18:52:56.939Z,10.80
2023-02-02T18:55:24.900Z,10.90
2023-02-02T18:57:52.683Z,10.90
2023-02-02T19:00:21.210Z,11.00
2023-02-02T19:02:48.235Z,10.90
2023-02-02T19:05:33.603Z,10.90
2023-02-02T19:08:03.958Z,10.90
2023-02-02T19:10:30.977Z,11.00
2023-02-02T19:13:19.607Z,11.10
2023-02-02T19:15:48.632Z,11.00
2023-02-02T19:18:18.429Z,11.00
2023-02-02T19:20:46.237Z,11.00
2023-02-02T19:23:16.048Z,11.00
2023-02-02T19:25:47.058Z,11.00
2023-02-02T19:28:21.161Z,11.10
2023-02-02T19:30:48.437Z,11.10
2023-02-02T19:33:17.015Z,11.00
2023-02-02T19:35:46.603Z,11.10
2023-02-02T19:38:15.946Z,11.10
2023-02-02T19:40:43.736Z,11.00
2023-02-02T19:43:10.503Z,10.90
2023-02-02T19:45:39.796Z,11.00
2023-02-02T19:48:18.581Z,11.00
2023-02-02T19:50:46.615Z,11.20
2023-02-02T19:53:21.233Z,11.00
2023-02-02T19:55:48.781Z,11.10
2023-02-02T19:58:25.066Z,11.00
2023-02-02T20:00:53.696Z,11.10
2023-02-02T20:03:24.026Z,11.20
2023-02-02T20:05:52.578Z,11.20
2023-02-02T20:08:38.483Z,11.00
2023-02-02T20:11:37.167Z,11.00
2023-02-02T20:14:19.336Z,11.20
2023-02-02T20:16:52.335Z,11.20
2023-02-02T20:19:25.451Z,11.00
2023-02-02T20:21:53.627Z,11.10
2023-02-02T20:24:24.766Z,11.10
2023-02-02T20:26:54.687Z,11.00
2023-02-02T20:29:30.717Z,10.90
2023-02-02T20:31:59.302Z,10.90
2023-02-02T20:34:29.278Z,10.90
2023-02-02T20:37:19.861Z,10.90
2023-02-02T20:39:48.514Z,11.00
2023-02-02T20:42:15.649Z,11.00
2023-02-02T20:44:46.130Z,11.00
2023-02-02T20:47:13.296Z,11.10
2023-02-02T20:49:40.466Z,11.00
2023-02-02T20:52:15.330Z,10.90
2023-02-02T20:54:42.298Z,11.00
2023-02-02T20:57:12.048Z,10.90
2023-02-02T20:59:39.099Z,10.90
2023-02-02T21:02:06.017Z,10.90
2023-02-02T21:04:33.102Z,10.90
2023-02-02T21:07:00.190Z,11.00
2023-02-02T21:09:27.294Z,11.00
2023-02-02T21:11:54.246Z,11.00
2023-02-02T21:14:21.274Z,11.10
2023-02-02T21:16:48.319Z,11.10
2023-02-02T21:19:15.231Z,11.20
2023-02-02T21:21:42.204Z,11.20
2023-02-02T21:24:09.404Z,11.20
2023-02-02T21:26:36.500Z,11.20
2023-02-02T21:29:03.722Z,11.10
2023-02-02T21:31:35.048Z,11.20
2023-02-02T21:34:02.617Z,11.20
2023-02-02T21:36:34.393Z,11.20
2023-02-02T21:39:21.964Z,11.20
2023-02-02T21:42:17.116Z,11.20
2023-02-02T21:44:49.708Z,11.10
2023-02-02T21:47:25.264Z,11.10
2023-02-02T21:49:52.884Z,11.00
2023-02-02T21:52:20.597Z,11.00
2023-02-02T21:54:48.422Z,11.00
2023-02-02T21:57:24.519Z,11.00
2023-02-02T21:59:55.923Z,11.10
2023-02-02T22:02:45.094Z,11.10
2023-02-02T22:05:22.819Z,11.10
2023-02-02T22:07:53.371Z,11.10
2023-02-02T22:10:30.593Z,11.00
2023-02-02T22:12:57.569Z,11.00
2023-02-02T22:15:29.373Z,11.00
2023-02-02T22:17:56.452Z,11.10
2023-02-02T22:20:35.848Z,11.00
2023-02-02T22:23:03.915Z,11.00
2023-02-02T22:25:40.216Z,11.00
2023-02-02T22:28:14.655Z,11.00
2023-02-02T22:30:42.266Z,11.00
2023-02-02T22:33:11.463Z,11.10
2023-02-02T22:35:38.973Z,11.20
2023-02-02T22:38:06.579Z,11.20
2023-02-02T22:40:34.181Z,11.10
2023-02-02T22:43:03.488Z,11.20
2023-02-02T22:45:30.593Z,11.20
2023-02-02T22:47:57.446Z,11.10
2023-02-02T22:50:29.844Z,11.20
2023-02-02T22:52:57.400Z,11.30
2023-02-02T22:55:24.923Z,11.20
2023-02-02T22:57:52.025Z,11.20
2023-02-02T23:00:27.699Z,11.20
2023-02-02T23:02:56.384Z,11.20
2023-02-02T23:05:26.090Z,11.10
2023-02-02T23:07:54.594Z,11.20
2023-02-02T23:10:27.322Z,11.20
2023-02-02T23:12:58.568Z,11.10
2023-02-02T23:15:26.143Z,11.10
2023-02-02T23:17:53.295Z,11.20
2023-02-02T23:20:20.838Z,11.20
2023-02-02T23:22:47.665Z,11.30
2023-02-02T23:25:15.397Z,11.40
2023-02-02T23:27:42.936Z,11.50
2023-02-02T23:30:12.676Z,11.50
2023-02-02T23:32:39.922Z,11.50
2023-02-02T23:35:10.368Z,11.40
2023-02-02T23:37:37.603Z,11.40
2023-02-02T23:40:04.788Z,11.40
2023-02-02T23:42:32.086Z,11.30
2023-02-02T23:44:59.036Z,11.30
2023-02-02T23:47:26.147Z,11.20
2023-02-02T23:49:53.124Z,11.30
2023-02-02T23:52:20.603Z,11.30
2023-02-02T23:54:47.594Z,11.20
2023-02-02T23:57:14.660Z,11.20
2023-02-02T23:59:41.635Z,11.30
